sensor_id;sensor_type;location;lat;lon;timestamp;temperature;humidity
22781;DHT22;11557;50.884;4.322;2023-04-15T00:01:05;12.70;99.90
22781;DHT22;11557;50.884;4.322;2023-04-15T00:03:31;12.60;99.90
22781;DHT22;11557;50.884;4.322;2023-04-15T00:05:58;12.50;99.90
22781;DHT22;11557;50.884;4.322;2023-04-15T00:08:24;12.60;99.90
22781;DHT22;11557;50.884;4.322;2023-04-15T00:10:49;12.70;99.90
22781;DHT22;11557;50.884;4.322;2023-04-15T00:13:15;12.90;99.90
22781;DHT22;11557;50.884;4.322;2023-04-15T00:15:41;12.50;99.90
22781;DHT22;11557;50.884;4.322;2023-04-15T00:18:07;12.90;99.90
22781;DHT22;11557;50.884;4.322;2023-04-15T00:20:34;13.40;99.90
22781;DHT22;11557;50.884;4.322;2023-04-15T00:23:01;12.90;99.90
22781;DHT22;11557;50.884;4.322;2023-04-15T00:25:28;13.20;99.90
22781;DHT22;11557;50.884;4.322;2023-04-15T00:27:53;13.00;99.90
22781;DHT22;11557;50.884;4.322;2023-04-15T00:30:19;12.90;99.90
22781;DHT22;11557;50.884;4.322;2023-04-15T00:32:45;12.80;99.90
22781;DHT22;11557;50.884;4.322;2023-04-15T00:35:11;12.80;99.90
22781;DHT22;11557;50.884;4.322;2023-04-15T00:37:37;12.70;99.90
22781;DHT22;11557;50.884;4.322;2023-04-15T00:40:03;12.80;99.90
22781;DHT22;11557;50.884;4.322;2023-04-15T00:42:30;12.60;99.90
22781;DHT22;11557;50.884;4.322;2023-04-15T00:44:56;12.30;99.90
22781;DHT22;11557;50.884;4.322;2023-04-15T00:47:22;13.00;99.90
22781;DHT22;11557;50.884;4.322;2023-04-15T00:49:47;13.30;99.90
22781;DHT22;11557;50.884;4.322;2023-04-15T00:52:13;12.10;99.90
22781;DHT22;11557;50.884;4.322;2023-04-15T00:54:39;12.30;99.90
22781;DHT22;11557;50.884;4.322;2023-04-15T00:57:05;12.50;99.90
22781;DHT22;11557;50.884;4.322;2023-04-15T00:59:32;12.60;99.90
22781;DHT22;11557;50.884;4.322;2023-04-15T01:01:59;12.40;99.90
22781;DHT22;11557;50.884;4.322;2023-04-15T01:04:24;12.30;99.90
22781;DHT22;11557;50.884;4.322;2023-04-15T01:06:50;12.20;99.90
22781;DHT22;11557;50.884;4.322;2023-04-15T01:09:16;12.60;99.90
22781;DHT22;11557;50.884;4.322;2023-04-15T01:11:42;12.30;99.90
22781;DHT22;11557;50.884;4.322;2023-04-15T01:14:09;12.20;99.90
22781;DHT22;11557;50.884;4.322;2023-04-15T01:16:36;12.00;99.90
22781;DHT22;11557;50.884;4.322;2023-04-15T01:19:05;12.00;99.90
22781;DHT22;11557;50.884;4.322;2023-04-15T01:21:36;12.30;99.90
22781;DHT22;11557;50.884;4.322;2023-04-15T01:24:07;12.50;99.90
22781;DHT22;11557;50.884;4.322;2023-04-15T01:26:33;12.60;99.90
22781;DHT22;11557;50.884;4.322;2023-04-15T01:28:59;12.40;99.90
22781;DHT22;11557;50.884;4.322;2023-04-15T01:31:24;12.30;99.90
22781;DHT22;11557;50.884;4.322;2023-04-15T01:33:50;12.30;99.90
22781;DHT22;11557;50.884;4.322;2023-04-15T01:36:16;12.30;99.90
22781;DHT22;11557;50.884;4.322;2023-04-15T01:38:41;12.00;99.90
22781;DHT22;11557;50.884;4.322;2023-04-15T01:41:07;13.40;99.90
22781;DHT22;11557;50.884;4.322;2023-04-15T01:43:34;12.00;99.90
22781;DHT22;11557;50.884;4.322;2023-04-15T01:46:00;12.00;99.90
22781;DHT22;11557;50.884;4.322;2023-04-15T01:48:26;12.30;99.90
22781;DHT22;11557;50.884;4.322;2023-04-15T01:50:53;12.50;99.90
22781;DHT22;11557;50.884;4.322;2023-04-15T01:53:18;12.50;99.90
22781;DHT22;11557;50.884;4.322;2023-04-15T01:55:45;12.50;99.90
22781;DHT22;11557;50.884;4.322;2023-04-15T01:58:11;12.50;99.90
22781;DHT22;11557;50.884;4.322;2023-04-15T02:00:36;13.10;99.90
22781;DHT22;11557;50.884;4.322;2023-04-15T02:03:02;12.80;99.90
22781;DHT22;11557;50.884;4.322;2023-04-15T02:05:28;12.70;99.90
22781;DHT22;11557;50.884;4.322;2023-04-15T02:07:53;12.80;99.90
22781;DHT22;11557;50.884;4.322;2023-04-15T02:10:19;12.90;99.90
22781;DHT22;11557;50.884;4.322;2023-04-15T02:12:45;13.20;99.90
22781;DHT22;11557;50.884;4.322;2023-04-15T02:15:11;12.70;99.90
22781;DHT22;11557;50.884;4.322;2023-04-15T02:17:36;12.70;99.90
22781;DHT22;11557;50.884;4.322;2023-04-15T02:20:03;12.80;99.90
22781;DHT22;11557;50.884;4.322;2023-04-15T02:22:34;12.70;99.90
22781;DHT22;11557;50.884;4.322;2023-04-15T02:24:59;12.60;99.90
22781;DHT22;11557;50.884;4.322;2023-04-15T02:27:25;12.60;99.90
22781;DHT22;11557;50.884;4.322;2023-04-15T02:29:52;12.50;99.90
22781;DHT22;11557;50.884;4.322;2023-04-15T02:32:18;13.60;99.90
22781;DHT22;11557;50.884;4.322;2023-04-15T02:34:44;13.00;99.90
22781;DHT22;11557;50.884;4.322;2023-04-15T02:37:11;12.80;99.90
22781;DHT22;11557;50.884;4.322;2023-04-15T02:39:37;13.50;99.90
22781;DHT22;11557;50.884;4.322;2023-04-15T02:42:03;12.90;99.90
22781;DHT22;11557;50.884;4.322;2023-04-15T02:44:30;12.70;99.90
22781;DHT22;11557;50.884;4.322;2023-04-15T02:46:57;13.10;99.90
22781;DHT22;11557;50.884;4.322;2023-04-15T02:49:24;12.70;99.90
22781;DHT22;11557;50.884;4.322;2023-04-15T02:51:50;12.90;99.90
22781;DHT22;11557;50.884;4.322;2023-04-15T02:54:19;12.60;99.90
22781;DHT22;11557;50.884;4.322;2023-04-15T02:56:45;12.30;99.90
22781;DHT22;11557;50.884;4.322;2023-04-15T02:59:12;12.30;99.90
22781;DHT22;11557;50.884;4.322;2023-04-15T03:01:37;13.00;99.90
22781;DHT22;11557;50.884;4.322;2023-04-15T03:04:03;12.30;99.90
22781;DHT22;11557;50.884;4.322;2023-04-15T03:06:29;12.30;99.90
22781;DHT22;11557;50.884;4.322;2023-04-15T03:08:55;12.50;99.90
22781;DHT22;11557;50.884;4.322;2023-04-15T03:11:21;12.40;99.90
22781;DHT22;11557;50.884;4.322;2023-04-15T03:13:47;13.90;99.90
22781;DHT22;11557;50.884;4.322;2023-04-15T03:16:12;12.30;99.90
22781;DHT22;11557;50.884;4.322;2023-04-15T03:18:38;12.30;99.90
22781;DHT22;11557;50.884;4.322;2023-04-15T03:21:04;12.30;99.90
22781;DHT22;11557;50.884;4.322;2023-04-15T03:23:32;12.40;99.90
22781;DHT22;11557;50.884;4.322;2023-04-15T03:26:01;12.50;99.90
22781;DHT22;11557;50.884;4.322;2023-04-15T03:28:26;12.00;99.90
22781;DHT22;11557;50.884;4.322;2023-04-15T03:30:53;12.20;99.90
22781;DHT22;11557;50.884;4.322;2023-04-15T03:33:19;11.80;99.90
22781;DHT22;11557;50.884;4.322;2023-04-15T03:35:45;12.30;99.90
22781;DHT22;11557;50.884;4.322;2023-04-15T03:38:11;12.30;99.90
22781;DHT22;11557;50.884;4.322;2023-04-15T03:40:37;11.20;99.90
22781;DHT22;11557;50.884;4.322;2023-04-15T03:43:03;11.30;99.90
22781;DHT22;11557;50.884;4.322;2023-04-15T03:45:29;11.30;99.90
22781;DHT22;11557;50.884;4.322;2023-04-15T03:47:55;12.20;99.90
22781;DHT22;11557;50.884;4.322;2023-04-15T03:50:21;11.60;99.90
22781;DHT22;11557;50.884;4.322;2023-04-15T03:52:46;11.50;99.90
22781;DHT22;11557;50.884;4.322;2023-04-15T03:55:12;12.00;99.90
22781;DHT22;11557;50.884;4.322;2023-04-15T03:57:37;11.50;99.90
22781;DHT22;11557;50.884;4.322;2023-04-15T04:00:05;11.50;99.90
22781;DHT22;11557;50.884;4.322;2023-04-15T04:02:31;11.50;99.90
22781;DHT22;11557;50.884;4.322;2023-04-15T04:04:56;11.50;99.90
22781;DHT22;11557;50.884;4.322;2023-04-15T04:07:23;11.90;99.90
22781;DHT22;11557;50.884;4.322;2023-04-15T04:09:49;11.80;99.90
22781;DHT22;11557;50.884;4.322;2023-04-15T04:12:14;12.50;99.90
22781;DHT22;11557;50.884;4.322;2023-04-15T04:14:40;11.60;99.90
22781;DHT22;11557;50.884;4.322;2023-04-15T04:17:06;11.60;99.90
22781;DHT22;11557;50.884;4.322;2023-04-15T04:19:32;12.10;99.90
22781;DHT22;11557;50.884;4.322;2023-04-15T04:21:57;11.70;99.90
22781;DHT22;11557;50.884;4.322;2023-04-15T04:24:23;11.50;99.90
22781;DHT22;11557;50.884;4.322;2023-04-15T04:26:48;12.80;99.90
22781;DHT22;11557;50.884;4.322;2023-04-15T04:29:14;12.80;99.90
22781;DHT22;11557;50.884;4.322;2023-04-15T04:31:40;11.50;99.90
22781;DHT22;11557;50.884;4.322;2023-04-15T04:34:05;12.00;99.90
22781;DHT22;11557;50.884;4.322;2023-04-15T04:36:31;11.40;99.90
22781;DHT22;11557;50.884;4.322;2023-04-15T04:38:56;12.90;99.90
22781;DHT22;11557;50.884;4.322;2023-04-15T04:41:22;12.10;99.90
22781;DHT22;11557;50.884;4.322;2023-04-15T04:43:48;12.40;99.90
22781;DHT22;11557;50.884;4.322;2023-04-15T04:46:13;11.60;99.90
22781;DHT22;11557;50.884;4.322;2023-04-15T04:48:39;11.40;99.90
22781;DHT22;11557;50.884;4.322;2023-04-15T04:51:05;11.30;99.90
22781;DHT22;11557;50.884;4.322;2023-04-15T04:53:32;11.00;99.90
22781;DHT22;11557;50.884;4.322;2023-04-15T04:55:57;11.80;99.90
22781;DHT22;11557;50.884;4.322;2023-04-15T04:58:23;12.30;99.90
22781;DHT22;11557;50.884;4.322;2023-04-15T05:00:49;11.60;99.90
22781;DHT22;11557;50.884;4.322;2023-04-15T05:03:14;11.70;99.90
22781;DHT22;11557;50.884;4.322;2023-04-15T05:05:40;12.10;99.90
22781;DHT22;11557;50.884;4.322;2023-04-15T05:08:06;11.50;99.90
22781;DHT22;11557;50.884;4.322;2023-04-15T05:10:32;12.30;99.90
22781;DHT22;11557;50.884;4.322;2023-04-15T05:12:58;12.20;99.90
22781;DHT22;11557;50.884;4.322;2023-04-15T05:15:23;11.00;99.90
22781;DHT22;11557;50.884;4.322;2023-04-15T05:17:49;10.80;99.90
22781;DHT22;11557;50.884;4.322;2023-04-15T05:20:15;11.70;99.90
22781;DHT22;11557;50.884;4.322;2023-04-15T05:22:41;10.60;99.90
22781;DHT22;11557;50.884;4.322;2023-04-15T05:25:07;11.60;99.90
22781;DHT22;11557;50.884;4.322;2023-04-15T05:27:34;10.80;99.90
22781;DHT22;11557;50.884;4.322;2023-04-15T05:29:59;11.80;99.90
22781;DHT22;11557;50.884;4.322;2023-04-15T05:32:25;10.90;99.90
22781;DHT22;11557;50.884;4.322;2023-04-15T05:34:51;10.80;99.90
22781;DHT22;11557;50.884;4.322;2023-04-15T05:37:16;12.30;99.90
22781;DHT22;11557;50.884;4.322;2023-04-15T05:39:45;11.20;99.90
22781;DHT22;11557;50.884;4.322;2023-04-15T05:42:11;10.70;99.90
22781;DHT22;11557;50.884;4.322;2023-04-15T05:44:37;12.20;99.90
22781;DHT22;11557;50.884;4.322;2023-04-15T05:47:02;10.60;99.90
22781;DHT22;11557;50.884;4.322;2023-04-15T05:49:28;10.70;99.90
22781;DHT22;11557;50.884;4.322;2023-04-15T05:51:54;11.50;99.90
22781;DHT22;11557;50.884;4.322;2023-04-15T05:54:19;11.60;99.90
22781;DHT22;11557;50.884;4.322;2023-04-15T05:56:47;11.80;99.90
22781;DHT22;11557;50.884;4.322;2023-04-15T05:59:13;12.20;99.90
22781;DHT22;11557;50.884;4.322;2023-04-15T06:01:39;13.30;99.90
22781;DHT22;11557;50.884;4.322;2023-04-15T06:04:04;11.70;99.90
22781;DHT22;11557;50.884;4.322;2023-04-15T06:06:30;12.20;99.90
22781;DHT22;11557;50.884;4.322;2023-04-15T06:08:57;12.80;99.90
22781;DHT22;11557;50.884;4.322;2023-04-15T06:11:22;12.10;99.90
22781;DHT22;11557;50.884;4.322;2023-04-15T06:13:48;11.80;99.90
22781;DHT22;11557;50.884;4.322;2023-04-15T06:16:14;12.50;99.90
22781;DHT22;11557;50.884;4.322;2023-04-15T06:18:40;12.60;99.90
22781;DHT22;11557;50.884;4.322;2023-04-15T06:21:05;13.60;99.90
22781;DHT22;11557;50.884;4.322;2023-04-15T06:23:33;12.30;99.90
22781;DHT22;11557;50.884;4.322;2023-04-15T06:26:00;12.70;99.90
22781;DHT22;11557;50.884;4.322;2023-04-15T06:28:25;12.90;99.90
22781;DHT22;11557;50.884;4.322;2023-04-15T06:30:52;12.10;99.90
22781;DHT22;11557;50.884;4.322;2023-04-15T06:33:18;12.20;99.90
22781;DHT22;11557;50.884;4.322;2023-04-15T06:35:43;12.20;99.90
22781;DHT22;11557;50.884;4.322;2023-04-15T06:38:09;13.40;99.90
22781;DHT22;11557;50.884;4.322;2023-04-15T06:40:35;12.80;99.90
22781;DHT22;11557;50.884;4.322;2023-04-15T06:43:01;12.50;99.90
22781;DHT22;11557;50.884;4.322;2023-04-15T06:45:26;12.60;99.90
22781;DHT22;11557;50.884;4.322;2023-04-15T06:47:52;13.00;99.90
22781;DHT22;11557;50.884;4.322;2023-04-15T06:50:17;13.60;99.90
22781;DHT22;11557;50.884;4.322;2023-04-15T06:52:43;12.90;99.90
22781;DHT22;11557;50.884;4.322;2023-04-15T06:55:09;13.70;99.90
22781;DHT22;11557;50.884;4.322;2023-04-15T06:57:34;13.40;99.90
22781;DHT22;11557;50.884;4.322;2023-04-15T07:00:00;13.60;99.90
22781;DHT22;11557;50.884;4.322;2023-04-15T07:02:26;12.90;99.90
22781;DHT22;11557;50.884;4.322;2023-04-15T07:04:51;12.90;99.90
22781;DHT22;11557;50.884;4.322;2023-04-15T07:07:17;13.00;99.90
22781;DHT22;11557;50.884;4.322;2023-04-15T07:09:43;13.30;99.90
22781;DHT22;11557;50.884;4.322;2023-04-15T07:12:09;13.50;99.90
22781;DHT22;11557;50.884;4.322;2023-04-15T07:14:34;13.50;99.90
22781;DHT22;11557;50.884;4.322;2023-04-15T07:17:00;14.20;99.90
22781;DHT22;11557;50.884;4.322;2023-04-15T07:19:26;13.90;99.90
22781;DHT22;11557;50.884;4.322;2023-04-15T07:21:52;14.00;99.90
22781;DHT22;11557;50.884;4.322;2023-04-15T07:24:17;13.80;99.90
22781;DHT22;11557;50.884;4.322;2023-04-15T07:26:45;14.00;99.90
22781;DHT22;11557;50.884;4.322;2023-04-15T07:29:10;14.10;99.90
22781;DHT22;11557;50.884;4.322;2023-04-15T07:31:36;14.00;99.90
22781;DHT22;11557;50.884;4.322;2023-04-15T07:34:02;14.40;99.90
22781;DHT22;11557;50.884;4.322;2023-04-15T07:36:29;15.20;99.90
22781;DHT22;11557;50.884;4.322;2023-04-15T07:38:55;14.00;99.90
22781;DHT22;11557;50.884;4.322;2023-04-15T07:41:22;13.50;99.90
22781;DHT22;11557;50.884;4.322;2023-04-15T07:43:48;13.10;99.90
22781;DHT22;11557;50.884;4.322;2023-04-15T07:46:14;13.00;99.90
22781;DHT22;11557;50.884;4.322;2023-04-15T07:48:39;13.00;99.90
22781;DHT22;11557;50.884;4.322;2023-04-15T07:51:05;12.70;99.90
22781;DHT22;11557;50.884;4.322;2023-04-15T07:53:33;13.50;99.90
22781;DHT22;11557;50.884;4.322;2023-04-15T07:55:58;12.80;99.90
22781;DHT22;11557;50.884;4.322;2023-04-15T07:58:24;12.40;99.90
22781;DHT22;11557;50.884;4.322;2023-04-15T08:00:50;13.30;99.90
22781;DHT22;11557;50.884;4.322;2023-04-15T08:03:16;12.70;99.90
22781;DHT22;11557;50.884;4.322;2023-04-15T08:05:41;12.40;99.90
22781;DHT22;11557;50.884;4.322;2023-04-15T08:08:08;12.50;99.90
22781;DHT22;11557;50.884;4.322;2023-04-15T08:10:34;12.80;99.90
22781;DHT22;11557;50.884;4.322;2023-04-15T08:12:59;12.50;99.90
22781;DHT22;11557;50.884;4.322;2023-04-15T08:15:25;12.10;99.90
22781;DHT22;11557;50.884;4.322;2023-04-15T08:17:52;13.80;99.90
22781;DHT22;11557;50.884;4.322;2023-04-15T08:20:18;13.10;99.90
22781;DHT22;11557;50.884;4.322;2023-04-15T08:22:44;12.90;99.90
22781;DHT22;11557;50.884;4.322;2023-04-15T08:25:10;13.50;99.90
22781;DHT22;11557;50.884;4.322;2023-04-15T08:27:36;13.20;99.90
22781;DHT22;11557;50.884;4.322;2023-04-15T08:30:02;14.00;99.90
22781;DHT22;11557;50.884;4.322;2023-04-15T08:32:28;14.40;99.90
22781;DHT22;11557;50.884;4.322;2023-04-15T08:34:53;14.80;99.90
22781;DHT22;11557;50.884;4.322;2023-04-15T08:37:19;15.30;99.90
22781;DHT22;11557;50.884;4.322;2023-04-15T08:39:45;15.20;99.90
22781;DHT22;11557;50.884;4.322;2023-04-15T08:42:15;16.30;99.90
22781;DHT22;11557;50.884;4.322;2023-04-15T08:44:42;15.60;99.90
22781;DHT22;11557;50.884;4.322;2023-04-15T08:47:10;16.10;99.90
22781;DHT22;11557;50.884;4.322;2023-04-15T08:49:39;16.50;99.90
22781;DHT22;11557;50.884;4.322;2023-04-15T08:52:06;17.00;99.90
22781;DHT22;11557;50.884;4.322;2023-04-15T08:54:34;16.90;99.90
22781;DHT22;11557;50.884;4.322;2023-04-15T08:57:03;16.70;99.90
22781;DHT22;11557;50.884;4.322;2023-04-15T08:59:32;16.70;99.90
22781;DHT22;11557;50.884;4.322;2023-04-15T09:01:57;16.90;99.90
22781;DHT22;11557;50.884;4.322;2023-04-15T09:04:23;17.60;99.90
22781;DHT22;11557;50.884;4.322;2023-04-15T09:06:49;17.70;99.90
22781;DHT22;11557;50.884;4.322;2023-04-15T09:09:14;18.30;99.90
22781;DHT22;11557;50.884;4.322;2023-04-15T09:11:40;19.30;99.90
22781;DHT22;11557;50.884;4.322;2023-04-15T09:14:07;21.00;99.90
22781;DHT22;11557;50.884;4.322;2023-04-15T09:16:55;21.90;99.90
22781;DHT22;11557;50.884;4.322;2023-04-15T09:19:22;22.80;99.90
22781;DHT22;11557;50.884;4.322;2023-04-15T09:21:50;23.80;99.90
22781;DHT22;11557;50.884;4.322;2023-04-15T09:24:16;24.30;99.90
22781;DHT22;11557;50.884;4.322;2023-04-15T09:26:42;24.50;99.90
22781;DHT22;11557;50.884;4.322;2023-04-15T09:29:11;25.00;99.90
22781;DHT22;11557;50.884;4.322;2023-04-15T09:31:41;25.20;99.90
22781;DHT22;11557;50.884;4.322;2023-04-15T09:34:07;26.00;99.90
22781;DHT22;11557;50.884;4.322;2023-04-15T09:36:52;25.80;99.90
22781;DHT22;11557;50.884;4.322;2023-04-15T09:39:17;26.20;99.90
22781;DHT22;11557;50.884;4.322;2023-04-15T09:41:43;26.20;99.90
22781;DHT22;11557;50.884;4.322;2023-04-15T09:44:25;26.10;99.90
22781;DHT22;11557;50.884;4.322;2023-04-15T09:46:51;26.60;99.90
22781;DHT22;11557;50.884;4.322;2023-04-15T09:49:16;25.70;99.90
22781;DHT22;11557;50.884;4.322;2023-04-15T09:51:42;25.40;99.90
22781;DHT22;11557;50.884;4.322;2023-04-15T09:54:08;24.90;99.90
22781;DHT22;11557;50.884;4.322;2023-04-15T09:56:35;24.70;99.90
22781;DHT22;11557;50.884;4.322;2023-04-15T09:59:02;25.10;99.90
22781;DHT22;11557;50.884;4.322;2023-04-15T10:01:28;25.40;99.90
22781;DHT22;11557;50.884;4.322;2023-04-15T10:03:56;25.70;99.90
22781;DHT22;11557;50.884;4.322;2023-04-15T10:06:24;25.70;99.90
22781;DHT22;11557;50.884;4.322;2023-04-15T10:08:50;25.20;99.90
22781;DHT22;11557;50.884;4.322;2023-04-15T10:11:17;24.30;99.90
22781;DHT22;11557;50.884;4.322;2023-04-15T10:13:45;23.50;99.90
22781;DHT22;11557;50.884;4.322;2023-04-15T10:16:15;23.70;99.90
22781;DHT22;11557;50.884;4.322;2023-04-15T10:18:46;22.80;99.90
22781;DHT22;11557;50.884;4.322;2023-04-15T10:21:12;22.10;99.90
22781;DHT22;11557;50.884;4.322;2023-04-15T10:23:40;22.50;99.90
22781;DHT22;11557;50.884;4.322;2023-04-15T10:26:07;22.60;99.90
22781;DHT22;11557;50.884;4.322;2023-04-15T10:28:34;22.70;99.90
22781;DHT22;11557;50.884;4.322;2023-04-15T10:31:00;22.60;99.90
22781;DHT22;11557;50.884;4.322;2023-04-15T10:33:27;22.40;99.90
22781;DHT22;11557;50.884;4.322;2023-04-15T10:35:54;21.70;99.90
22781;DHT22;11557;50.884;4.322;2023-04-15T10:41:18;21.30;99.90
22781;DHT22;11557;50.884;4.322;2023-04-15T10:43:49;21.20;99.90
22781;DHT22;11557;50.884;4.322;2023-04-15T10:46:40;21.30;99.90
22781;DHT22;11557;50.884;4.322;2023-04-15T10:49:16;21.30;99.90
22781;DHT22;11557;50.884;4.322;2023-04-15T10:51:53;21.20;99.90
22781;DHT22;11557;50.884;4.322;2023-04-15T10:56:51;21.10;99.90
22781;DHT22;11557;50.884;4.322;2023-04-15T10:59:37;21.20;99.90
22781;DHT22;11557;50.884;4.322;2023-04-15T11:02:05;21.10;99.90
22781;DHT22;11557;50.884;4.322;2023-04-15T11:04:54;20.50;99.90
22781;DHT22;11557;50.884;4.322;2023-04-15T11:07:58;20.40;99.90
22781;DHT22;11557;50.884;4.322;2023-04-15T11:12:58;20.30;99.90
22781;DHT22;11557;50.884;4.322;2023-04-15T11:15:45;20.30;99.90
22781;DHT22;11557;50.884;4.322;2023-04-15T11:20:48;19.70;99.90
22781;DHT22;11557;50.884;4.322;2023-04-15T11:23:29;19.80;99.90
22781;DHT22;11557;50.884;4.322;2023-04-15T11:25:56;20.20;99.90
22781;DHT22;11557;50.884;4.322;2023-04-15T11:28:25;20.50;99.90
22781;DHT22;11557;50.884;4.322;2023-04-15T11:30:51;20.20;99.90
22781;DHT22;11557;50.884;4.322;2023-04-15T11:33:18;20.20;99.90
22781;DHT22;11557;50.884;4.322;2023-04-15T11:35:43;20.30;99.90
22781;DHT22;11557;50.884;4.322;2023-04-15T11:38:11;20.50;99.90
22781;DHT22;11557;50.884;4.322;2023-04-15T11:40:38;20.30;99.90
22781;DHT22;11557;50.884;4.322;2023-04-15T11:43:15;20.10;99.90
22781;DHT22;11557;50.884;4.322;2023-04-15T11:48:18;20.30;99.90
22781;DHT22;11557;50.884;4.322;2023-04-15T11:50:44;20.20;99.90
22781;DHT22;11557;50.884;4.322;2023-04-15T11:53:11;19.80;99.90
22781;DHT22;11557;50.884;4.322;2023-04-15T11:55:45;19.50;98.80
22781;DHT22;11557;50.884;4.322;2023-04-15T11:58:15;19.30;98.80
22781;DHT22;11557;50.884;4.322;2023-04-15T12:00:58;19.60;99.20
22781;DHT22;11557;50.884;4.322;2023-04-15T12:09:11;19.40;99.90
22781;DHT22;11557;50.884;4.322;2023-04-15T12:14:14;19.10;99.90
22781;DHT22;11557;50.884;4.322;2023-04-15T12:16:45;19.00;99.90
22781;DHT22;11557;50.884;4.322;2023-04-15T12:19:15;18.90;99.90
22781;DHT22;11557;50.884;4.322;2023-04-15T12:21:44;19.20;99.90
22781;DHT22;11557;50.884;4.322;2023-04-15T12:24:11;19.20;99.90
22781;DHT22;11557;50.884;4.322;2023-04-15T12:26:48;19.30;99.90
22781;DHT22;11557;50.884;4.322;2023-04-15T12:29:15;19.20;99.90
22781;DHT22;11557;50.884;4.322;2023-04-15T12:31:55;19.40;99.90
22781;DHT22;11557;50.884;4.322;2023-04-15T12:34:32;19.50;99.90
22781;DHT22;11557;50.884;4.322;2023-04-15T12:37:00;19.70;99.90
22781;DHT22;11557;50.884;4.322;2023-04-15T12:39:27;20.00;99.90
22781;DHT22;11557;50.884;4.322;2023-04-15T12:41:54;20.10;99.90
22781;DHT22;11557;50.884;4.322;2023-04-15T12:44:21;20.00;99.90
22781;DHT22;11557;50.884;4.322;2023-04-15T12:46:48;20.00;99.90
22781;DHT22;11557;50.884;4.322;2023-04-15T12:49:14;19.40;99.90
22781;DHT22;11557;50.884;4.322;2023-04-15T12:51:41;19.50;99.90
22781;DHT22;11557;50.884;4.322;2023-04-15T12:54:06;19.20;99.90
22781;DHT22;11557;50.884;4.322;2023-04-15T12:56:32;19.60;99.90
22781;DHT22;11557;50.884;4.322;2023-04-15T12:58:58;19.60;99.90
22781;DHT22;11557;50.884;4.322;2023-04-15T13:01:23;19.60;99.90
22781;DHT22;11557;50.884;4.322;2023-04-15T13:03:49;19.30;99.90
22781;DHT22;11557;50.884;4.322;2023-04-15T13:06:15;19.10;99.90
22781;DHT22;11557;50.884;4.322;2023-04-15T13:08:41;19.10;99.90
22781;DHT22;11557;50.884;4.322;2023-04-15T13:11:07;18.90;99.90
22781;DHT22;11557;50.884;4.322;2023-04-15T13:13:33;18.90;99.90
22781;DHT22;11557;50.884;4.322;2023-04-15T13:15:58;19.00;99.90
22781;DHT22;11557;50.884;4.322;2023-04-15T13:18:24;19.20;99.90
22781;DHT22;11557;50.884;4.322;2023-04-15T13:20:50;19.10;99.90
22781;DHT22;11557;50.884;4.322;2023-04-15T13:23:16;19.30;99.90
22781;DHT22;11557;50.884;4.322;2023-04-15T13:25:42;19.10;99.90
22781;DHT22;11557;50.884;4.322;2023-04-15T13:28:10;18.80;99.90
22781;DHT22;11557;50.884;4.322;2023-04-15T13:30:37;18.60;99.90
22781;DHT22;11557;50.884;4.322;2023-04-15T13:33:03;18.50;99.90
22781;DHT22;11557;50.884;4.322;2023-04-15T13:35:28;18.50;99.90
22781;DHT22;11557;50.884;4.322;2023-04-15T13:37:54;18.40;99.90
22781;DHT22;11557;50.884;4.322;2023-04-15T13:40:20;18.50;99.90
22781;DHT22;11557;50.884;4.322;2023-04-15T13:42:46;18.30;99.90
22781;DHT22;11557;50.884;4.322;2023-04-15T13:45:12;18.40;99.90
22781;DHT22;11557;50.884;4.322;2023-04-15T13:47:38;18.40;99.90
22781;DHT22;11557;50.884;4.322;2023-04-15T13:50:05;18.50;99.90
22781;DHT22;11557;50.884;4.322;2023-04-15T13:52:30;18.60;99.90
22781;DHT22;11557;50.884;4.322;2023-04-15T13:54:56;18.30;99.90
22781;DHT22;11557;50.884;4.322;2023-04-15T13:57:22;18.00;99.90
22781;DHT22;11557;50.884;4.322;2023-04-15T13:59:47;17.80;99.90
22781;DHT22;11557;50.884;4.322;2023-04-15T14:02:13;17.80;99.90
22781;DHT22;11557;50.884;4.322;2023-04-15T14:04:38;17.90;99.90
22781;DHT22;11557;50.884;4.322;2023-04-15T14:07:04;18.10;99.90
22781;DHT22;11557;50.884;4.322;2023-04-15T14:09:30;18.50;99.90
22781;DHT22;11557;50.884;4.322;2023-04-15T14:11:56;18.70;99.90
22781;DHT22;11557;50.884;4.322;2023-04-15T14:14:23;18.80;99.90
22781;DHT22;11557;50.884;4.322;2023-04-15T14:16:49;18.80;99.90
22781;DHT22;11557;50.884;4.322;2023-04-15T14:19:15;18.90;99.90
22781;DHT22;11557;50.884;4.322;2023-04-15T14:21:40;19.00;99.90
22781;DHT22;11557;50.884;4.322;2023-04-15T14:24:06;19.00;99.90
22781;DHT22;11557;50.884;4.322;2023-04-15T14:26:35;18.80;99.90
22781;DHT22;11557;50.884;4.322;2023-04-15T14:29:00;18.70;99.90
22781;DHT22;11557;50.884;4.322;2023-04-15T14:31:26;18.70;99.90
22781;DHT22;11557;50.884;4.322;2023-04-15T14:33:51;18.60;99.90
22781;DHT22;11557;50.884;4.322;2023-04-15T14:36:17;18.70;99.90
22781;DHT22;11557;50.884;4.322;2023-04-15T14:38:43;18.70;99.90
22781;DHT22;11557;50.884;4.322;2023-04-15T14:41:08;17.90;99.90
22781;DHT22;11557;50.884;4.322;2023-04-15T14:43:35;18.80;99.90
22781;DHT22;11557;50.884;4.322;2023-04-15T14:46:00;18.70;99.90
22781;DHT22;11557;50.884;4.322;2023-04-15T14:48:26;18.60;99.90
22781;DHT22;11557;50.884;4.322;2023-04-15T14:50:52;18.60;99.90
22781;DHT22;11557;50.884;4.322;2023-04-15T14:53:18;18.40;99.90
22781;DHT22;11557;50.884;4.322;2023-04-15T14:55:44;18.40;99.90
22781;DHT22;11557;50.884;4.322;2023-04-15T14:58:10;18.40;99.90
22781;DHT22;11557;50.884;4.322;2023-04-15T15:00:37;18.30;99.90
22781;DHT22;11557;50.884;4.322;2023-04-15T15:03:07;18.20;99.90
22781;DHT22;11557;50.884;4.322;2023-04-15T15:05:41;18.10;99.90
22781;DHT22;11557;50.884;4.322;2023-04-15T15:08:07;18.10;99.90
22781;DHT22;11557;50.884;4.322;2023-04-15T15:10:34;18.00;99.90
22781;DHT22;11557;50.884;4.322;2023-04-15T15:13:02;18.00;99.90
22781;DHT22;11557;50.884;4.322;2023-04-15T15:15:28;17.80;99.90
22781;DHT22;11557;50.884;4.322;2023-04-15T15:17:54;17.80;99.90
22781;DHT22;11557;50.884;4.322;2023-04-15T15:20:21;17.80;99.90
22781;DHT22;11557;50.884;4.322;2023-04-15T15:22:47;18.10;99.90
22781;DHT22;11557;50.884;4.322;2023-04-15T15:25:13;18.30;99.90
22781;DHT22;11557;50.884;4.322;2023-04-15T15:27:38;18.10;99.90
22781;DHT22;11557;50.884;4.322;2023-04-15T15:30:05;18.00;99.90
22781;DHT22;11557;50.884;4.322;2023-04-15T15:32:31;18.20;99.90
22781;DHT22;11557;50.884;4.322;2023-04-15T15:34:57;17.90;99.90
22781;DHT22;11557;50.884;4.322;2023-04-15T15:37:22;17.50;99.90
22781;DHT22;11557;50.884;4.322;2023-04-15T15:39:48;17.60;99.90
22781;DHT22;11557;50.884;4.322;2023-04-15T15:42:15;17.50;99.90
22781;DHT22;11557;50.884;4.322;2023-04-15T15:44:41;17.40;99.90
22781;DHT22;11557;50.884;4.322;2023-04-15T15:47:06;17.00;99.90
22781;DHT22;11557;50.884;4.322;2023-04-15T15:49:32;17.00;99.90